createdAt,value
2017-01-23T00:00:54.521Z,0
2017-01-23T00:01:36.246Z,0
2017-01-23T00:02:18.049Z,0
2017-01-23T00:02:59.703Z,0
2017-01-23T00:03:41.399Z,0
2017-01-23T00:04:23.039Z,0
2017-01-23T00:05:04.728Z,0
2017-01-23T00:05:46.418Z,0
2017-01-23T00:06:28.103Z,0
2017-01-23T00:07:09.849Z,0
2017-01-23T00:09:30.477Z,0
2017-01-23T00:12:01.567Z,0
2017-01-23T00:12:43.337Z,0
2017-01-23T00:13:25.060Z,0
2017-01-23T00:14:06.837Z,0
2017-01-23T00:14:48.554Z,0
2017-01-23T00:15:30.299Z,0
2017-01-23T00:16:12.004Z,0
2017-01-23T00:16:53.776Z,0
2017-01-23T00:17:35.518Z,0
2017-01-23T00:18:17.243Z,0
2017-01-23T00:18:58.947Z,0
2017-01-23T00:19:40.635Z,0
2017-01-23T00:20:22.327Z,0
2017-01-23T00:21:04.021Z,0
2017-01-23T00:21:45.708Z,0
2017-01-23T00:22:27.347Z,0
2017-01-23T00:23:09.075Z,0
2017-01-23T00:25:45.506Z,0
2017-01-23T00:28:21.977Z,0
2017-01-23T00:29:03.604Z,0
2017-01-23T00:29:45.276Z,0
2017-01-23T00:30:27.070Z,0
2017-01-23T00:31:08.560Z,0
2017-01-23T00:31:50.281Z,0
2017-01-23T00:32:32.014Z,0
2017-01-23T00:33:13.696Z,0
2017-01-23T00:33:55.410Z,0
2017-01-23T00:34:37.192Z,0
2017-01-23T00:35:18.736Z,0
2017-01-23T00:36:00.499Z,0
2017-01-23T00:38:36.793Z,0
2017-01-23T00:39:18.474Z,0
2017-01-23T00:40:00.259Z,0
2017-01-23T00:40:42.020Z,0
2017-01-23T00:41:23.733Z,0
2017-01-23T00:42:05.390Z,0
2017-01-23T00:42:47.155Z,0
2017-01-23T00:43:28.796Z,0
2017-01-23T00:44:10.539Z,0
2017-01-23T00:44:52.178Z,0
2017-01-23T00:45:33.908Z,0
2017-01-23T00:46:15.647Z,0
2017-01-23T00:46:57.317Z,0
2017-01-23T00:47:39.109Z,0
2017-01-23T00:48:20.891Z,0
2017-01-23T00:49:02.507Z,0
2017-01-23T00:51:23.261Z,0
2017-01-23T00:52:04.768Z,0
2017-01-23T00:52:46.580Z,0
2017-01-23T00:53:28.333Z,0
2017-01-23T00:54:10.067Z,0
2017-01-23T00:54:51.831Z,0
2017-01-23T00:55:33.580Z,0
2017-01-23T00:56:15.239Z,0
2017-01-23T00:56:56.873Z,0
2017-01-23T00:57:38.297Z,0
2017-01-23T01:02:03.643Z,0
2017-01-23T01:02:45.304Z,0
2017-01-23T01:03:26.811Z,0
2017-01-23T01:04:08.402Z,0
2017-01-23T01:06:49.668Z,0
2017-01-23T01:07:31.222Z,0
2017-01-23T01:08:12.984Z,0
2017-01-23T01:08:54.684Z,0
2017-01-23T01:09:36.415Z,0
2017-01-23T01:10:18.186Z,0
2017-01-23T01:12:38.972Z,0
2017-01-23T01:15:10.105Z,0
2017-01-23T01:15:51.843Z,0
2017-01-23T01:18:07.244Z,0
2017-01-23T01:20:22.659Z,0
2017-01-23T01:22:38.137Z,0
2017-01-23T01:26:48.128Z,0
2017-01-23T01:27:29.822Z,0
2017-01-23T01:28:11.587Z,0
2017-01-23T01:28:53.343Z,0
2017-01-23T01:29:35.094Z,0
2017-01-23T01:33:50.569Z,0
2017-01-23T01:36:27.048Z,0
2017-01-23T01:37:08.788Z,0
2017-01-23T01:37:50.564Z,0
2017-01-23T01:38:32.357Z,0
2017-01-23T01:39:14.080Z,0
2017-01-23T01:39:55.787Z,0
2017-01-23T01:40:37.511Z,0
2017-01-23T01:41:19.244Z,0
2017-01-23T01:42:01.016Z,0
2017-01-23T01:42:42.785Z,0
2017-01-23T01:43:24.266Z,0
2017-01-23T01:44:05.954Z,0
2017-01-23T01:44:47.751Z,0
2017-01-23T01:45:29.526Z,0
2017-01-23T01:46:11.300Z,0
2017-01-23T01:46:52.967Z,0
2017-01-23T01:51:23.953Z,0
2017-01-23T01:52:04.886Z,0
2017-01-23T01:52:46.261Z,0
2017-01-23T01:55:17.334Z,0
2017-01-23T01:55:58.908Z,0
2017-01-23T01:58:40.696Z,0
2017-01-23T01:59:22.246Z,0
2017-01-23T02:00:03.081Z,0
2017-01-23T02:00:43.601Z,0
2017-01-23T02:01:24.121Z,0
2017-01-23T02:02:04.643Z,0
2017-01-23T02:02:45.167Z,0
2017-01-23T02:03:25.692Z,0
2017-01-23T02:04:06.217Z,0
2017-01-23T02:04:46.744Z,0
2017-01-23T02:05:27.275Z,0
2017-01-23T02:06:07.796Z,0
2017-01-23T02:06:48.316Z,0
2017-01-23T02:07:28.829Z,0
2017-01-23T02:08:09.427Z,0
2017-01-23T02:08:49.961Z,0
2017-01-23T02:09:30.488Z,0
2017-01-23T02:10:11.012Z,0
2017-01-23T02:10:51.533Z,0
2017-01-23T02:11:32.060Z,0
2017-01-23T02:12:12.585Z,0
2017-01-23T02:12:53.108Z,0
2017-01-23T02:13:33.625Z,0
2017-01-23T02:14:14.146Z,0
2017-01-23T02:14:54.680Z,0
2017-01-23T02:15:35.197Z,0
2017-01-23T02:16:15.721Z,0
2017-01-23T02:16:56.248Z,0
2017-01-23T02:17:36.780Z,0
2017-01-23T02:18:17.297Z,0
2017-01-23T02:18:57.820Z,0
2017-01-23T02:19:38.346Z,0
2017-01-23T02:20:18.874Z,0
2017-01-23T02:20:59.396Z,0
2017-01-23T02:21:39.915Z,0
2017-01-23T02:22:20.478Z,0
2017-01-23T02:23:01.016Z,0
2017-01-23T02:23:41.538Z,0
2017-01-23T02:24:22.072Z,0
2017-01-23T02:25:02.597Z,0
2017-01-23T02:25:43.119Z,0
2017-01-23T02:26:23.647Z,0
2017-01-23T02:27:04.177Z,0
2017-01-23T02:27:44.702Z,0
2017-01-23T02:28:25.230Z,0
2017-01-23T02:29:05.768Z,0
2017-01-23T02:29:46.296Z,0
2017-01-23T02:30:26.827Z,0
2017-01-23T02:31:07.350Z,0
2017-01-23T02:31:47.876Z,0
2017-01-23T02:32:28.396Z,0
2017-01-23T02:33:08.928Z,0
2017-01-23T02:33:49.450Z,0
2017-01-23T02:34:29.978Z,0
2017-01-23T02:35:10.502Z,0
2017-01-23T02:35:51.029Z,0
2017-01-23T02:36:31.543Z,0
2017-01-23T02:37:12.060Z,0
2017-01-23T02:37:52.592Z,0
2017-01-23T02:38:33.111Z,0
2017-01-23T02:39:13.633Z,0
2017-01-23T02:39:54.158Z,0
2017-01-23T02:40:34.690Z,0
2017-01-23T02:41:15.222Z,0
2017-01-23T02:41:55.747Z,0
2017-01-23T02:42:36.273Z,0
2017-01-23T02:43:16.800Z,0
2017-01-23T02:43:57.329Z,0
2017-01-23T02:44:37.855Z,0
2017-01-23T02:45:18.372Z,0
2017-01-23T02:45:58.901Z,0
2017-01-23T02:46:39.431Z,0
2017-01-23T02:47:19.955Z,0
2017-01-23T02:48:00.477Z,0
2017-01-23T02:48:41.001Z,0
2017-01-23T02:49:21.525Z,0
2017-01-23T02:50:02.052Z,0
2017-01-23T02:50:42.572Z,0
2017-01-23T02:51:23.104Z,0
2017-01-23T02:52:03.635Z,0
2017-01-23T02:52:44.162Z,0
2017-01-23T02:53:24.686Z,0
2017-01-23T02:54:05.216Z,0
2017-01-23T02:54:45.746Z,0
2017-01-23T02:55:26.266Z,0
2017-01-23T02:56:06.788Z,0
2017-01-23T02:56:47.303Z,0
2017-01-23T02:57:27.847Z,0
2017-01-23T02:58:08.367Z,0
2017-01-23T02:58:48.893Z,0
2017-01-23T02:59:29.418Z,0
2017-01-23T03:00:09.935Z,0
2017-01-23T03:00:50.457Z,0
2017-01-23T03:01:30.985Z,0
2017-01-23T03:02:11.506Z,0
2017-01-23T03:02:52.030Z,0
2017-01-23T03:03:32.553Z,0
2017-01-23T03:04:13.073Z,0
2017-01-23T03:04:53.605Z,0
2017-01-23T03:05:34.128Z,0
2017-01-23T03:06:14.685Z,0
2017-01-23T03:06:55.202Z,0
2017-01-23T03:07:35.724Z,0
2017-01-23T03:08:16.259Z,0
2017-01-23T03:08:56.785Z,0
2017-01-23T03:09:37.308Z,0
2017-01-23T03:10:17.845Z,0
2017-01-23T03:10:58.361Z,0
2017-01-23T03:11:38.909Z,0
2017-01-23T03:12:19.424Z,0
2017-01-23T03:12:59.952Z,0
2017-01-23T03:13:40.488Z,0
2017-01-23T03:14:21.021Z,0
2017-01-23T03:15:01.548Z,0
2017-01-23T03:15:42.068Z,0
2017-01-23T03:16:22.593Z,0
2017-01-23T03:17:03.117Z,0
2017-01-23T03:17:43.651Z,0
2017-01-23T03:18:24.187Z,0
2017-01-23T03:19:04.714Z,0
2017-01-23T03:19:45.237Z,0
2017-01-23T03:20:25.764Z,0
2017-01-23T03:21:06.290Z,0
2017-01-23T03:21:46.816Z,0
2017-01-23T03:22:27.334Z,0
2017-01-23T03:23:07.873Z,0
2017-01-23T03:23:48.400Z,0
2017-01-23T03:24:28.925Z,0
2017-01-23T03:25:09.450Z,0
2017-01-23T03:25:49.977Z,0
2017-01-23T03:26:30.505Z,0
2017-01-23T03:27:11.030Z,0
2017-01-23T03:27:51.556Z,0
2017-01-23T03:28:32.084Z,0
2017-01-23T03:29:12.612Z,0
2017-01-23T03:29:53.133Z,0
2017-01-23T03:30:33.655Z,0
2017-01-23T03:31:14.183Z,0
2017-01-23T03:31:54.705Z,0
2017-01-23T03:32:35.233Z,0
2017-01-23T03:33:15.755Z,0
2017-01-23T03:33:56.281Z,0
2017-01-23T03:34:36.815Z,0
2017-01-23T03:35:17.340Z,0
2017-01-23T03:35:57.861Z,0
2017-01-23T03:36:38.388Z,0
2017-01-23T03:37:18.919Z,0
2017-01-23T03:37:59.446Z,0
2017-01-23T03:38:39.976Z,0
2017-01-23T03:39:20.492Z,0
2017-01-23T03:40:01.023Z,0
2017-01-23T03:40:41.582Z,0
2017-01-23T03:41:22.093Z,0
2017-01-23T03:42:02.607Z,0
2017-01-23T03:42:43.135Z,0
2017-01-23T03:43:23.656Z,0
2017-01-23T03:44:04.184Z,0
2017-01-23T03:44:44.712Z,0
2017-01-23T03:45:25.245Z,0
2017-01-23T03:46:05.772Z,0
2017-01-23T03:46:46.290Z,0
2017-01-23T03:47:26.818Z,0
2017-01-23T03:48:07.340Z,0
2017-01-23T03:48:47.867Z,0
2017-01-23T03:49:28.390Z,0
2017-01-23T03:50:08.914Z,0
2017-01-23T03:50:49.443Z,0
2017-01-23T03:51:29.974Z,0
2017-01-23T03:52:10.487Z,0
2017-01-23T03:52:51.010Z,0
2017-01-23T03:53:31.537Z,0
2017-01-23T03:54:12.066Z,0
2017-01-23T03:54:52.590Z,0
2017-01-23T03:55:33.115Z,0
2017-01-23T03:56:13.648Z,0
2017-01-23T03:56:54.166Z,0
2017-01-23T03:57:34.687Z,0
2017-01-23T03:58:15.209Z,0
2017-01-23T03:58:55.729Z,0
2017-01-23T03:59:36.260Z,0
2017-01-23T04:00:16.775Z,0
2017-01-23T04:00:57.414Z,0
2017-01-23T04:01:37.938Z,0
2017-01-23T04:02:18.455Z,0
2017-01-23T04:02:59.296Z,0
2017-01-23T04:03:39.775Z,0
2017-01-23T04:04:20.298Z,0
2017-01-23T04:05:00.824Z,0
2017-01-23T04:05:41.352Z,0
2017-01-23T04:06:21.867Z,0
2017-01-23T04:07:02.395Z,0
2017-01-23T04:07:42.922Z,0
2017-01-23T04:08:23.463Z,0
2017-01-23T04:09:03.994Z,0
2017-01-23T04:09:44.513Z,0
2017-01-23T04:10:25.035Z,0
2017-01-23T04:11:05.563Z,0
2017-01-23T04:11:46.092Z,0
2017-01-23T04:12:26.611Z,0
2017-01-23T04:13:07.135Z,0
2017-01-23T04:13:47.661Z,0
2017-01-23T04:14:28.202Z,0
2017-01-23T04:15:08.732Z,0
2017-01-23T04:15:49.251Z,0
2017-01-23T04:16:29.777Z,0
2017-01-23T04:17:10.298Z,0
2017-01-23T04:17:50.855Z,0
2017-01-23T04:18:31.385Z,0
2017-01-23T04:19:11.911Z,0
2017-01-23T04:19:52.432Z,0
2017-01-23T04:20:32.959Z,0
2017-01-23T04:21:13.488Z,0
2017-01-23T04:21:54.011Z,0
2017-01-23T04:22:34.533Z,0
2017-01-23T04:23:15.060Z,0
2017-01-23T04:23:55.586Z,0
2017-01-23T04:24:36.110Z,0
2017-01-23T04:25:16.633Z,0
2017-01-23T04:25:57.161Z,0
2017-01-23T04:26:37.688Z,0
2017-01-23T04:27:18.212Z,0
2017-01-23T04:27:58.728Z,0
2017-01-23T04:28:39.255Z,0
2017-01-23T04:29:19.795Z,0
2017-01-23T04:30:00.318Z,0
2017-01-23T04:30:40.841Z,0
2017-01-23T04:31:21.372Z,0
2017-01-23T04:32:01.907Z,0
2017-01-23T04:32:42.416Z,0
2017-01-23T04:33:22.946Z,0
2017-01-23T04:34:03.470Z,0
2017-01-23T04:34:44.125Z,0
2017-01-23T04:35:24.522Z,0
2017-01-23T04:36:05.107Z,0
2017-01-23T04:36:45.638Z,0
2017-01-23T04:37:26.137Z,0
2017-01-23T04:38:06.723Z,0
2017-01-23T04:38:47.248Z,0
2017-01-23T04:39:27.773Z,0
2017-01-23T04:40:08.307Z,0
2017-01-23T04:40:48.815Z,0
2017-01-23T04:41:29.334Z,0
2017-01-23T04:42:09.863Z,0
2017-01-23T04:42:50.411Z,0
2017-01-23T04:43:30.943Z,0
2017-01-23T04:44:11.469Z,0
2017-01-23T04:44:51.995Z,0
2017-01-23T04:45:32.522Z,0
2017-01-23T04:46:13.054Z,0
2017-01-23T04:46:53.592Z,0
2017-01-23T04:47:34.120Z,0
2017-01-23T04:48:14.647Z,0
2017-01-23T04:48:55.202Z,0
2017-01-23T04:49:35.733Z,0
2017-01-23T04:50:16.258Z,0
2017-01-23T04:50:56.784Z,0
2017-01-23T04:51:37.310Z,0
2017-01-23T04:52:17.838Z,0
2017-01-23T04:52:58.365Z,0
2017-01-23T04:53:38.896Z,0
2017-01-23T04:54:19.426Z,0
2017-01-23T04:54:59.953Z,0
2017-01-23T04:55:40.479Z,0
2017-01-23T04:56:21.008Z,0
2017-01-23T04:57:01.534Z,0
2017-01-23T04:57:42.060Z,0
2017-01-23T04:58:22.596Z,0
2017-01-23T04:59:03.135Z,0
2017-01-23T04:59:43.661Z,0
2017-01-23T05:00:24.185Z,0
2017-01-23T05:01:04.700Z,0
2017-01-23T05:01:45.242Z,0
2017-01-23T05:02:25.771Z,0
2017-01-23T05:03:06.303Z,0
2017-01-23T05:03:46.831Z,0
2017-01-23T05:04:27.402Z,0
2017-01-23T05:05:07.931Z,0
2017-01-23T05:05:48.456Z,0
2017-01-23T05:06:28.984Z,0
2017-01-23T05:07:09.519Z,0
2017-01-23T05:07:50.044Z,0
2017-01-23T05:08:30.568Z,0
2017-01-23T05:09:11.075Z,0
2017-01-23T05:09:51.605Z,0
2017-01-23T05:10:32.120Z,0
2017-01-23T05:11:12.653Z,0
2017-01-23T05:11:53.181Z,0
2017-01-23T05:12:33.719Z,0
2017-01-23T05:13:14.248Z,0
2017-01-23T05:13:54.775Z,0
2017-01-23T05:14:35.305Z,0
2017-01-23T05:15:15.834Z,0
2017-01-23T05:15:56.351Z,0
2017-01-23T05:16:36.866Z,0
2017-01-23T05:17:17.391Z,0
2017-01-23T05:17:57.929Z,0
2017-01-23T05:18:38.457Z,0
2017-01-23T05:19:18.987Z,0
2017-01-23T05:19:59.513Z,0
2017-01-23T05:20:40.044Z,0
2017-01-23T05:21:20.559Z,0
2017-01-23T05:22:01.089Z,0
2017-01-23T05:22:41.610Z,0
2017-01-23T05:23:22.133Z,0
2017-01-23T05:24:02.660Z,0
2017-01-23T05:24:43.189Z,0
2017-01-23T05:25:23.717Z,0
2017-01-23T05:26:04.238Z,0
2017-01-23T05:26:44.776Z,0
2017-01-23T05:27:25.303Z,0
2017-01-23T05:28:05.833Z,0
2017-01-23T05:28:46.358Z,0
2017-01-23T05:29:26.884Z,0
2017-01-23T05:30:07.401Z,0
2017-01-23T05:30:47.929Z,0
2017-01-23T05:31:28.462Z,0
2017-01-23T05:32:09.119Z,0
2017-01-23T05:32:49.653Z,0
2017-01-23T05:33:30.181Z,0
2017-01-23T05:34:10.701Z,0
2017-01-23T05:34:51.245Z,0
2017-01-23T05:35:31.770Z,0
2017-01-23T05:36:12.299Z,0
2017-01-23T05:36:52.832Z,0
2017-01-23T05:37:33.356Z,0
2017-01-23T05:38:13.882Z,0
2017-01-23T05:38:54.413Z,0
2017-01-23T05:39:34.945Z,0
2017-01-23T05:40:15.472Z,0
2017-01-23T05:40:55.995Z,0
2017-01-23T05:41:36.533Z,0
2017-01-23T05:42:17.053Z,0
2017-01-23T05:42:57.574Z,0
2017-01-23T05:43:38.085Z,0
2017-01-23T05:44:18.614Z,0
2017-01-23T05:44:59.146Z,0
2017-01-23T05:45:39.663Z,0
2017-01-23T05:46:20.189Z,0
2017-01-23T05:47:00.720Z,0
2017-01-23T05:47:41.269Z,0
2017-01-23T05:48:21.779Z,0
2017-01-23T05:49:02.302Z,0
2017-01-23T05:49:42.832Z,0
2017-01-23T05:50:23.371Z,0
2017-01-23T05:51:03.877Z,0
2017-01-23T05:51:44.403Z,0
2017-01-23T05:52:24.919Z,0
2017-01-23T05:53:05.447Z,0
2017-01-23T05:53:45.978Z,0
2017-01-23T05:54:26.505Z,0
2017-01-23T05:55:07.034Z,0
2017-01-23T05:55:47.554Z,0
2017-01-23T05:56:28.089Z,0
2017-01-23T05:57:08.617Z,0
2017-01-23T05:57:49.143Z,0
2017-01-23T05:58:29.666Z,0
2017-01-23T05:59:10.195Z,0
2017-01-23T05:59:50.720Z,0
2017-01-23T06:00:31.250Z,0
2017-01-23T06:01:11.786Z,0
2017-01-23T06:01:52.317Z,0
2017-01-23T06:02:32.845Z,0
2017-01-23T06:03:13.370Z,0
2017-01-23T06:03:53.884Z,0
2017-01-23T06:04:34.405Z,0
2017-01-23T06:05:14.935Z,0
2017-01-23T06:05:55.462Z,0
2017-01-23T06:06:35.989Z,0
2017-01-23T06:07:16.517Z,0
2017-01-23T06:07:57.044Z,0
2017-01-23T06:08:37.570Z,0
2017-01-23T06:09:18.094Z,0
2017-01-23T06:09:58.627Z,0
2017-01-23T06:10:39.156Z,0
2017-01-23T06:11:19.686Z,0
2017-01-23T06:12:00.216Z,0
2017-01-23T06:12:40.737Z,0
2017-01-23T06:13:21.270Z,0
2017-01-23T06:14:01.797Z,0
2017-01-23T06:14:42.321Z,0
2017-01-23T06:15:22.850Z,0
2017-01-23T06:16:03.383Z,0
2017-01-23T06:16:43.908Z,0
2017-01-23T06:17:24.438Z,0
2017-01-23T06:18:05.012Z,0
2017-01-23T06:18:45.529Z,0
2017-01-23T06:19:26.059Z,0
2017-01-23T06:20:06.593Z,0
2017-01-23T06:20:47.113Z,0
2017-01-23T06:21:27.641Z,0
2017-01-23T06:22:08.172Z,0
2017-01-23T06:22:48.699Z,0
2017-01-23T06:23:29.231Z,0
2017-01-23T06:24:09.752Z,0
2017-01-23T06:24:50.280Z,0
2017-01-23T06:25:30.808Z,0
2017-01-23T06:26:11.336Z,0
2017-01-23T06:26:51.865Z,0
2017-01-23T06:27:32.399Z,0
2017-01-23T06:28:12.933Z,0
2017-01-23T06:28:53.467Z,0
2017-01-23T06:29:33.985Z,0
2017-01-23T06:30:14.516Z,0
2017-01-23T06:30:55.046Z,0
2017-01-23T06:31:35.578Z,0
2017-01-23T06:32:16.106Z,0
2017-01-23T06:32:56.634Z,0
2017-01-23T06:33:37.169Z,0
2017-01-23T06:34:17.679Z,0
2017-01-23T06:34:58.204Z,0
2017-01-23T06:35:38.709Z,0
2017-01-23T06:36:19.289Z,0
2017-01-23T06:36:59.847Z,0
2017-01-23T06:37:40.338Z,0
2017-01-23T06:38:20.867Z,0
2017-01-23T06:39:01.392Z,0
2017-01-23T06:39:41.925Z,0
2017-01-23T06:40:22.444Z,0
2017-01-23T06:41:02.970Z,0
2017-01-23T06:41:43.503Z,0
2017-01-23T06:42:24.022Z,0
2017-01-23T06:43:04.551Z,0
2017-01-23T06:43:45.080Z,0
2017-01-23T06:44:25.611Z,0
2017-01-23T06:45:06.142Z,0
2017-01-23T06:45:46.674Z,0
2017-01-23T06:46:27.197Z,0
2017-01-23T06:47:07.726Z,0
2017-01-23T06:47:48.252Z,0
2017-01-23T06:48:28.788Z,0
2017-01-23T06:49:09.317Z,0
2017-01-23T06:49:49.844Z,0
2017-01-23T06:50:30.419Z,0
2017-01-23T06:51:10.945Z,0
2017-01-23T06:51:51.466Z,0
2017-01-23T06:52:31.999Z,0
2017-01-23T06:53:12.549Z,0
2017-01-23T06:53:53.061Z,0
2017-01-23T06:54:33.599Z,0
2017-01-23T06:55:14.123Z,0
2017-01-23T06:55:54.652Z,0
2017-01-23T06:56:35.195Z,0
2017-01-23T06:57:15.725Z,0
2017-01-23T06:57:56.247Z,0
2017-01-23T06:58:36.776Z,0
2017-01-23T06:59:17.305Z,0
2017-01-23T06:59:57.836Z,0
2017-01-23T07:00:38.365Z,0
2017-01-23T07:01:18.895Z,0
2017-01-23T07:01:59.428Z,0
2017-01-23T07:02:39.956Z,0
2017-01-23T07:03:20.485Z,0
2017-01-23T07:04:01.010Z,0
2017-01-23T07:04:41.540Z,0
2017-01-23T07:05:22.047Z,0
2017-01-23T07:06:02.570Z,0
2017-01-23T07:06:43.100Z,0
2017-01-23T07:07:23.627Z,0
2017-01-23T07:08:04.155Z,0
2017-01-23T07:08:44.675Z,0
2017-01-23T07:09:25.203Z,0
2017-01-23T07:10:05.724Z,0
2017-01-23T07:10:46.246Z,0
2017-01-23T07:11:26.786Z,0
2017-01-23T07:12:07.317Z,0
2017-01-23T07:12:47.845Z,0
2017-01-23T07:13:28.372Z,0
2017-01-23T07:14:08.894Z,0
2017-01-23T07:14:49.423Z,0
2017-01-23T07:15:29.946Z,0
2017-01-23T07:16:10.472Z,0
2017-01-23T07:16:51.005Z,0
2017-01-23T07:17:31.569Z,0
2017-01-23T07:18:12.110Z,0
2017-01-23T07:20:26.649Z,0
2017-01-23T07:21:07.175Z,0
2017-01-23T07:21:47.699Z,0
2017-01-23T07:22:28.232Z,0
2017-01-23T07:23:08.755Z,0
2017-01-23T07:23:49.282Z,0
2017-01-23T07:24:29.814Z,0
2017-01-23T07:25:10.331Z,0
2017-01-23T07:25:50.863Z,0
2017-01-23T07:26:31.389Z,0
2017-01-23T07:27:11.913Z,0
2017-01-23T07:27:52.441Z,0
2017-01-23T07:28:32.968Z,0
2017-01-23T07:29:13.494Z,0
2017-01-23T07:29:54.036Z,0
2017-01-23T07:30:34.543Z,0
2017-01-23T07:31:15.065Z,5
2017-01-23T07:31:55.591Z,5
2017-01-23T07:32:36.119Z,5
2017-01-23T07:33:16.645Z,5
2017-01-23T07:33:57.172Z,5
2017-01-23T07:34:37.695Z,5
2017-01-23T07:35:18.256Z,5
2017-01-23T07:35:58.784Z,5
2017-01-23T07:36:39.303Z,5
2017-01-23T07:37:19.838Z,5
2017-01-23T07:38:00.366Z,5
2017-01-23T07:38:40.907Z,5
2017-01-23T07:39:21.429Z,5
2017-01-23T07:40:01.963Z,5
2017-01-23T07:40:42.489Z,5
2017-01-23T07:41:23.007Z,5
2017-01-23T07:42:03.540Z,5
2017-01-23T07:42:44.065Z,5
2017-01-23T07:43:24.587Z,5
2017-01-23T07:44:05.125Z,5
2017-01-23T07:44:45.650Z,5
2017-01-23T07:45:26.186Z,5
2017-01-23T07:46:06.708Z,5
2017-01-23T07:46:47.243Z,5
2017-01-23T07:47:27.771Z,5
2017-01-23T07:48:08.297Z,5
2017-01-23T07:48:48.825Z,5
2017-01-23T07:49:29.353Z,10
2017-01-23T07:50:09.882Z,10
2017-01-23T07:50:50.404Z,10
2017-01-23T07:51:30.936Z,10
2017-01-23T07:52:11.458Z,10
2017-01-23T07:52:51.984Z,10
2017-01-23T07:53:32.514Z,10
2017-01-23T07:54:13.028Z,10
2017-01-23T07:54:53.557Z,10
2017-01-23T07:55:34.086Z,10
2017-01-23T07:56:14.614Z,10
2017-01-23T07:56:55.176Z,10
2017-01-23T07:57:35.709Z,10
2017-01-23T07:58:16.234Z,10
2017-01-23T07:58:56.761Z,10
2017-01-23T07:59:37.288Z,10
2017-01-23T08:00:17.824Z,10
2017-01-23T08:00:58.362Z,10
2017-01-23T08:01:38.877Z,10
2017-01-23T08:02:19.404Z,10
2017-01-23T08:02:59.926Z,10
2017-01-23T08:03:40.460Z,10
2017-01-23T08:04:20.990Z,10
2017-01-23T08:05:01.516Z,10
2017-01-23T08:05:42.055Z,10
2017-01-23T08:06:22.583Z,10
2017-01-23T08:07:03.111Z,10
2017-01-23T08:07:43.640Z,10
2017-01-23T08:08:24.163Z,10
2017-01-23T08:09:04.705Z,10
2017-01-23T08:09:45.239Z,10
2017-01-23T08:10:25.765Z,15
2017-01-23T08:11:06.285Z,15
2017-01-23T08:11:46.817Z,15
2017-01-23T08:12:27.328Z,15
2017-01-23T08:13:07.865Z,15
2017-01-23T08:13:48.389Z,15
2017-01-23T08:14:28.943Z,15
2017-01-23T08:15:09.445Z,15
2017-01-23T08:15:49.976Z,15
2017-01-23T08:16:30.494Z,15
2017-01-23T08:17:11.008Z,20
2017-01-23T08:17:51.537Z,20
2017-01-23T08:18:32.065Z,15
2017-01-23T08:19:12.591Z,20
2017-01-23T08:19:53.118Z,20
2017-01-23T08:20:33.647Z,20
2017-01-23T08:21:14.194Z,20
2017-01-23T08:21:54.697Z,20
2017-01-23T08:22:35.224Z,20
2017-01-23T08:23:15.749Z,20
2017-01-23T08:23:56.277Z,20
2017-01-23T08:24:36.807Z,20
2017-01-23T08:25:17.336Z,20
2017-01-23T08:25:57.866Z,20
2017-01-23T08:26:38.394Z,20
2017-01-23T08:27:18.912Z,20
2017-01-23T08:27:59.435Z,20
2017-01-23T08:28:39.963Z,20
2017-01-23T08:29:20.479Z,25
2017-01-23T08:30:01.003Z,25
2017-01-23T08:30:41.521Z,20
2017-01-23T08:31:22.047Z,20
2017-01-23T08:32:02.573Z,20
2017-01-23T08:32:43.102Z,20
2017-01-23T08:33:23.629Z,20
2017-01-23T08:34:04.149Z,20
2017-01-23T08:34:44.678Z,20
2017-01-23T08:35:25.199Z,20
2017-01-23T08:36:05.712Z,20
2017-01-23T08:36:46.246Z,20
2017-01-23T08:37:26.778Z,20
2017-01-23T08:38:07.299Z,20
2017-01-23T08:38:47.827Z,20
2017-01-23T08:39:28.354Z,20
2017-01-23T08:40:08.885Z,15
2017-01-23T08:40:49.401Z,15
2017-01-23T08:41:29.928Z,15
2017-01-23T08:42:10.456Z,15
2017-01-23T08:42:50.982Z,15
2017-01-23T08:43:31.504Z,15
2017-01-23T08:44:12.029Z,15
2017-01-23T08:44:52.556Z,15
2017-01-23T08:45:33.086Z,15
2017-01-23T08:46:13.605Z,15
2017-01-23T08:46:54.129Z,15
2017-01-23T08:47:34.655Z,15
2017-01-23T08:48:15.188Z,15
2017-01-23T08:48:55.708Z,15
2017-01-23T08:49:36.225Z,15
2017-01-23T08:50:16.761Z,15
2017-01-23T08:50:57.290Z,15
2017-01-23T08:51:37.794Z,15
2017-01-23T08:52:18.322Z,15
2017-01-23T08:52:58.850Z,15
2017-01-23T08:53:39.392Z,20
2017-01-23T08:54:19.904Z,20
2017-01-23T08:55:00.432Z,25
2017-01-23T08:55:40.961Z,25
2017-01-23T08:56:21.489Z,25
2017-01-23T08:57:02.025Z,25
2017-01-23T08:57:42.564Z,25
2017-01-23T08:58:23.117Z,25
2017-01-23T08:59:03.642Z,25
2017-01-23T08:59:44.168Z,25
2017-01-23T09:00:24.704Z,25
2017-01-23T09:01:05.299Z,25
2017-01-23T09:01:45.834Z,25
2017-01-23T09:02:26.366Z,25
2017-01-23T09:03:06.895Z,25
2017-01-23T09:03:47.415Z,25
2017-01-23T09:04:27.944Z,20
2017-01-23T09:05:08.484Z,20
2017-01-23T09:05:49.023Z,20
2017-01-23T09:06:29.550Z,25
2017-01-23T09:07:10.098Z,25
2017-01-23T09:07:50.630Z,25
2017-01-23T09:08:31.141Z,25
2017-01-23T09:09:11.669Z,25
2017-01-23T09:09:52.201Z,25
2017-01-23T09:10:32.721Z,25
2017-01-23T09:11:13.244Z,25
2017-01-23T09:11:53.771Z,25
2017-01-23T09:12:34.300Z,25
2017-01-23T09:13:14.821Z,25
2017-01-23T09:13:55.350Z,25
2017-01-23T09:14:35.884Z,25
2017-01-23T09:15:16.415Z,25
2017-01-23T09:15:56.949Z,25
2017-01-23T09:16:37.470Z,30
2017-01-23T09:17:17.999Z,30
2017-01-23T09:17:58.534Z,25
2017-01-23T09:18:39.071Z,30
2017-01-23T09:19:19.599Z,25
2017-01-23T09:20:00.127Z,30
2017-01-23T09:20:40.651Z,30
2017-01-23T09:21:21.176Z,30
2017-01-23T09:22:01.709Z,30
2017-01-23T09:22:42.228Z,30
2017-01-23T09:23:22.758Z,30
2017-01-23T09:24:03.291Z,25
2017-01-23T09:24:43.819Z,30
2017-01-23T09:25:24.351Z,30
2017-01-23T09:26:04.874Z,30
2017-01-23T09:26:45.401Z,30
2017-01-23T09:27:25.929Z,30
2017-01-23T09:28:06.460Z,30
2017-01-23T09:28:46.989Z,30
2017-01-23T09:29:27.516Z,30
2017-01-23T09:30:08.044Z,30
2017-01-23T09:30:48.571Z,30
2017-01-23T09:31:29.094Z,30
2017-01-23T09:32:09.617Z,30
2017-01-23T09:32:50.171Z,30
2017-01-23T09:33:30.678Z,30
2017-01-23T09:34:11.204Z,35
2017-01-23T09:34:51.726Z,30
2017-01-23T09:35:32.256Z,35
2017-01-23T09:36:12.796Z,35
2017-01-23T09:36:53.328Z,35
2017-01-23T09:37:33.853Z,30
2017-01-23T09:38:14.380Z,35
2017-01-23T09:38:54.908Z,35
2017-01-23T09:39:35.434Z,35
2017-01-23T09:40:15.965Z,30
2017-01-23T09:40:56.493Z,30
2017-01-23T09:41:37.027Z,30
2017-01-23T09:42:17.545Z,30
2017-01-23T09:42:58.076Z,30
2017-01-23T09:43:38.609Z,35
2017-01-23T09:44:19.135Z,35
2017-01-23T09:44:59.666Z,35
2017-01-23T09:45:40.194Z,35
2017-01-23T09:46:20.735Z,35
2017-01-23T09:47:01.259Z,35
2017-01-23T09:47:41.776Z,35
2017-01-23T09:48:22.329Z,35
2017-01-23T09:49:02.861Z,35
2017-01-23T09:49:43.385Z,35
2017-01-23T09:50:23.913Z,40
2017-01-23T09:51:04.441Z,40
2017-01-23T09:51:44.969Z,40
2017-01-23T09:52:25.493Z,40
2017-01-23T09:53:06.029Z,35
2017-01-23T09:53:46.551Z,35
2017-01-23T09:54:27.078Z,35
2017-01-23T09:55:07.606Z,35
2017-01-23T09:55:48.138Z,40
2017-01-23T09:56:28.668Z,35
2017-01-23T09:57:09.196Z,35
2017-01-23T09:57:49.710Z,40
2017-01-23T09:58:30.244Z,45
2017-01-23T09:59:10.774Z,45
2017-01-23T09:59:51.288Z,55
2017-01-23T10:00:31.815Z,60
2017-01-23T10:01:12.347Z,55
2017-01-23T10:01:52.867Z,45
2017-01-23T10:02:33.429Z,40
2017-01-23T10:03:13.960Z,40
2017-01-23T10:03:54.489Z,40
2017-01-23T10:04:35.016Z,40
2017-01-23T10:05:15.545Z,35
2017-01-23T10:05:56.081Z,40
2017-01-23T10:06:36.601Z,40
2017-01-23T10:07:17.118Z,40
2017-01-23T10:07:57.651Z,40
2017-01-23T10:08:38.181Z,40
2017-01-23T10:09:18.702Z,40
2017-01-23T10:09:59.231Z,40
2017-01-23T10:10:39.764Z,40
2017-01-23T10:11:20.288Z,40
2017-01-23T10:12:00.821Z,40
2017-01-23T10:12:41.344Z,40
2017-01-23T10:13:21.870Z,40
2017-01-23T10:14:02.387Z,40
2017-01-23T10:14:42.915Z,40
2017-01-23T10:15:23.433Z,45
2017-01-23T10:16:03.965Z,45
2017-01-23T10:16:44.565Z,40
2017-01-23T10:17:25.091Z,35
2017-01-23T10:18:05.621Z,40
2017-01-23T10:18:46.154Z,40
2017-01-23T10:19:26.680Z,45
2017-01-23T10:20:07.202Z,45
2017-01-23T10:20:47.735Z,45
2017-01-23T10:21:28.264Z,50
2017-01-23T10:22:08.802Z,55
2017-01-23T10:22:49.365Z,60
2017-01-23T10:23:29.905Z,60
2017-01-23T10:24:10.429Z,55
2017-01-23T10:24:50.937Z,50
2017-01-23T10:25:31.464Z,45
2017-01-23T10:26:11.993Z,45
2017-01-23T10:26:52.533Z,50
2017-01-23T10:27:33.063Z,45
2017-01-23T10:28:13.590Z,45
2017-01-23T10:28:54.128Z,45
2017-01-23T10:29:34.659Z,45
2017-01-23T10:30:15.198Z,50
2017-01-23T10:30:55.722Z,50
2017-01-23T10:31:36.255Z,50
2017-01-23T10:32:16.770Z,50
2017-01-23T10:32:57.312Z,50
2017-01-23T10:33:37.846Z,50
2017-01-23T10:34:18.376Z,50
2017-01-23T10:34:58.903Z,45
2017-01-23T10:35:39.432Z,45
2017-01-23T10:36:19.949Z,45
2017-01-23T10:37:00.469Z,45
2017-01-23T10:37:40.995Z,45
2017-01-23T10:38:21.526Z,45